Delta Virtual Airport Information Service

Montreal Pierre Elliott Trudeau Airport

ICAO: CYUL Country: Canada
Latitude: 45.4706 Longitude: -73.7408
Latest Arrival : JZA478 (CYOW-CYUL) Latest Departure : ACA401 (CYUL-CYYZ)


WX CaptureLIVE
Data provided by noaa.gov | Fetched at 11:59:09

METAR : CYUL 281600Z 04014G22KT 15SM BKN028 09/03 A3007 RMK SC6 SLP184

TAF : CYUL 281447Z 2815/2912 05012G22KT P6SM BKN030 TEMPO 2815/2816 BKN020 FM281700 05010G20KT P6SM FEW030 BECMG 2900/2902 05012KT BECMG 2906/2908 05007KT RMK NXT FCST BY 281800Z


Runway Data for CYUL
Data provided by openaviationdata.com

Runway ID Mag Var Hdg Length Elevation Surface ILS Freq ILS Id ILS Slope
06L 15 27° 11020 ft 118 ft Asphalt 109.3 IUL 3
06R 15 27° 9526 ft 118 ft Asphalt 110.5 IOA 3
24L 15 207° 9526 ft 118 ft Asphalt 110.5 IMQ 3
24R 15 207° 11020 ft 118 ft Asphalt 111.9 IZZ 3
28 15 252° 6500 ft 118 ft Asphalt -- -- --

Montreal Pierre Elliott Trudeau Airport, Canada
Use only for reference purposes



Not for navigational purposes.